createdAt,value
2022-08-17T00:01:51.568Z,11.48
2022-08-17T00:04:24.193Z,12.07
2022-08-17T00:06:57.461Z,12.25
2022-08-17T00:09:27.950Z,13.98
2022-08-17T00:12:40.630Z,12.73
2022-08-17T00:14:50.564Z,14.98
2022-08-17T00:17:21.224Z,12.50
2022-08-17T00:19:51.490Z,13.25
2022-08-17T00:22:31.601Z,14.35
2022-08-17T00:25:07.557Z,15.27
2022-08-17T00:27:38.399Z,13.63
2022-08-17T00:30:14.456Z,15.02
2022-08-17T00:33:15.409Z,13.60
2022-08-17T00:35:38.777Z,11.35
2022-08-17T00:38:12.540Z,12.60
2022-08-17T00:40:48.314Z,13.57
2022-08-17T00:43:26.118Z,12.77
2022-08-17T00:45:56.964Z,13.52
2022-08-17T00:48:30.622Z,15.40
2022-08-17T00:51:07.985Z,13.25
2022-08-17T00:53:44.809Z,14.00
2022-08-17T00:56:21.180Z,14.07
2022-08-17T00:58:55.257Z,11.98
2022-08-17T01:01:26.246Z,15.32
2022-08-17T01:03:58.054Z,14.15
2022-08-17T01:06:31.013Z,12.55
2022-08-17T01:09:05.270Z,12.82
2022-08-17T01:11:37.333Z,14.73
2022-08-17T01:14:07.981Z,12.70
2022-08-17T01:16:39.500Z,13.80
2022-08-17T01:19:20.341Z,12.95
2022-08-17T01:21:58.240Z,10.98
2022-08-17T01:24:34.353Z,12.75
2022-08-17T01:27:10.361Z,12.60
2022-08-17T01:29:45.537Z,12.82
2022-08-17T01:32:16.282Z,14.20
2022-08-17T01:34:50.661Z,12.35
2022-08-17T01:37:24.149Z,12.23
2022-08-17T01:40:03.867Z,14.18
2022-08-17T01:42:40.892Z,17.05
2022-08-17T01:45:23.197Z,11.52
2022-08-17T01:47:54.964Z,14.00
2022-08-17T01:50:29.471Z,13.75
2022-08-17T01:55:51.895Z,13.15
2022-08-17T01:58:22.663Z,12.60
2022-08-17T02:01:00.519Z,12.48
2022-08-17T02:03:33.234Z,14.45
2022-08-17T02:06:05.180Z,11.70
2022-08-17T02:08:37.154Z,13.82
2022-08-17T02:11:17.277Z,13.75
2022-08-17T02:13:49.396Z,10.80
2022-08-17T02:16:37.005Z,14.77
2022-08-17T02:19:12.636Z,12.88
2022-08-17T02:24:58.289Z,13.00
2022-08-17T02:27:11.896Z,12.38
2022-08-17T02:29:42.501Z,11.77
2022-08-17T02:32:27.717Z,12.77
2022-08-17T02:34:59.556Z,13.85
2022-08-17T02:37:31.737Z,13.60
2022-08-17T02:40:02.953Z,14.13
2022-08-17T02:42:40.078Z,13.18
2022-08-17T02:45:15.302Z,11.02
2022-08-17T02:47:47.145Z,11.13
2022-08-17T02:50:20.697Z,13.40
2022-08-17T02:52:57.265Z,12.70
2022-08-17T02:55:35.762Z,13.07
2022-08-17T02:58:10.682Z,13.63
2022-08-17T03:00:44.392Z,12.38
2022-08-17T03:03:18.852Z,12.83
2022-08-17T03:05:51.898Z,10.75
2022-08-17T03:08:23.535Z,17.25
2022-08-17T03:10:53.979Z,11.55
2022-08-17T03:13:27.740Z,16.10
2022-08-17T03:15:58.061Z,12.82
2022-08-17T03:18:28.621Z,12.20
2022-08-17T03:21:04.432Z,15.30
2022-08-17T03:23:41.040Z,15.73
2022-08-17T03:26:15.551Z,16.67
2022-08-17T03:28:49.336Z,14.13
2022-08-17T03:31:21.610Z,15.60
2022-08-17T03:33:51.993Z,17.65
2022-08-17T03:36:22.467Z,13.55
2022-08-17T03:38:53.784Z,13.10
2022-08-17T03:41:25.061Z,13.07
2022-08-17T03:43:57.926Z,12.93
2022-08-17T03:46:41.050Z,15.32
2022-08-17T03:49:24.483Z,12.30
2022-08-17T03:52:07.372Z,11.68
2022-08-17T03:54:50.154Z,15.45
2022-08-17T03:57:20.653Z,17.80
2022-08-17T03:59:54.079Z,12.32
2022-08-17T04:02:31.678Z,15.95
2022-08-17T04:05:02.962Z,20.67
2022-08-17T04:07:34.741Z,18.05
2022-08-17T04:10:05.388Z,13.55
2022-08-17T04:12:50.118Z,12.48
2022-08-17T04:17:54.853Z,15.38
2022-08-17T04:20:27.763Z,15.07
2022-08-17T04:23:05.086Z,13.35
2022-08-17T04:25:37.826Z,12.20
2022-08-17T04:28:15.804Z,15.10
2022-08-17T04:30:50.512Z,13.88
2022-08-17T04:33:24.214Z,13.45
2022-08-17T04:35:58.323Z,15.17
2022-08-17T04:38:31.949Z,15.38
2022-08-17T04:41:15.984Z,13.47
2022-08-17T04:43:48.414Z,12.98
2022-08-17T04:46:24.633Z,17.40
2022-08-17T04:48:57.333Z,14.45
2022-08-17T04:51:31.682Z,13.40
2022-08-17T04:54:07.035Z,14.45
2022-08-17T04:56:38.001Z,15.85
2022-08-17T04:59:12.245Z,19.40
2022-08-17T05:01:47.916Z,11.88
2022-08-17T05:04:34.833Z,17.80
2022-08-17T05:07:05.881Z,14.05
2022-08-17T05:09:36.173Z,15.07
2022-08-17T05:12:08.006Z,17.08
2022-08-17T05:14:38.365Z,16.42
2022-08-17T05:17:11.591Z,17.55
2022-08-17T05:19:42.217Z,18.08
2022-08-17T05:22:14.965Z,14.55
2022-08-17T05:24:53.885Z,12.35
2022-08-17T05:27:26.922Z,17.75
2022-08-17T05:30:05.632Z,16.80
2022-08-17T05:32:40.315Z,13.25
2022-08-17T05:35:12.044Z,16.38
2022-08-17T05:37:42.324Z,15.38
2022-08-17T05:40:14.235Z,15.52
2022-08-17T05:42:44.848Z,12.80
2022-08-17T05:45:28.123Z,17.92
2022-08-17T05:48:13.227Z,14.67
2022-08-17T05:50:52.485Z,15.75
2022-08-17T05:53:31.674Z,14.27
2022-08-17T05:56:30.235Z,19.08
2022-08-17T05:59:11.641Z,14.75
2022-08-17T06:01:51.147Z,25.17
2022-08-17T06:04:36.124Z,19.05
2022-08-17T06:07:15.260Z,12.52
2022-08-17T06:10:00.352Z,13.98
2022-08-17T06:12:43.743Z,16.48
2022-08-17T06:15:33.869Z,14.05
2022-08-17T06:18:08.744Z,15.70
2022-08-17T06:20:50.405Z,12.10
2022-08-17T06:23:29.849Z,14.52
2022-08-17T06:26:06.442Z,17.45
2022-08-17T06:28:42.240Z,13.18
2022-08-17T06:31:21.031Z,14.13
2022-08-17T06:33:52.479Z,13.20
2022-08-17T06:36:52.501Z,12.82
2022-08-17T06:39:40.616Z,11.57
2022-08-17T06:42:59.946Z,14.85
2022-08-17T06:45:18.397Z,14.73
2022-08-17T06:47:55.772Z,17.13
2022-08-17T06:50:35.214Z,12.35
2022-08-17T06:53:26.543Z,13.07
2022-08-17T06:56:02.750Z,16.23
2022-08-17T06:58:35.775Z,13.68
2022-08-17T07:01:15.507Z,19.17
2022-08-17T07:03:54.838Z,14.70
2022-08-17T07:06:29.021Z,12.20
2022-08-17T07:09:07.642Z,14.82
2022-08-17T07:11:52.985Z,13.00
2022-08-17T07:14:40.837Z,12.80
2022-08-17T07:17:15.779Z,14.77
2022-08-17T07:19:49.176Z,13.95
2022-08-17T07:22:30.874Z,14.98
2022-08-17T07:25:24.157Z,22.00
2022-08-17T07:28:00.382Z,18.27
2022-08-17T07:30:37.130Z,11.10
2022-08-17T07:33:20.479Z,17.40
2022-08-17T07:35:52.272Z,9.70
2022-08-17T07:38:26.851Z,13.38
2022-08-17T07:41:10.862Z,12.27
2022-08-17T07:43:52.487Z,17.83
2022-08-17T07:46:37.531Z,20.30
2022-08-17T07:49:30.641Z,9.88
2022-08-17T07:52:24.302Z,9.93
2022-08-17T07:54:58.921Z,15.07
2022-08-17T07:57:39.789Z,15.82
2022-08-17T08:00:26.628Z,13.40
2022-08-17T08:03:25.473Z,9.60
2022-08-17T08:06:00.434Z,10.95
2022-08-17T08:08:43.380Z,13.43
2022-08-17T08:11:18.015Z,8.75
2022-08-17T08:13:50.854Z,8.80
2022-08-17T08:16:32.135Z,8.25
2022-08-17T08:19:04.564Z,8.38
2022-08-17T08:21:53.747Z,7.85
2022-08-17T08:24:45.052Z,6.40
2022-08-17T08:27:32.959Z,6.65
2022-08-17T08:30:13.090Z,10.90
2022-08-17T08:33:10.677Z,9.05
2022-08-17T08:35:48.703Z,6.85
2022-08-17T08:38:33.756Z,8.45
2022-08-17T08:41:29.846Z,10.63
2022-08-17T08:44:15.085Z,7.72
2022-08-17T08:46:57.857Z,8.18
2022-08-17T08:50:37.142Z,7.75
2022-08-17T08:53:27.990Z,6.22
2022-08-17T08:56:06.376Z,6.47
2022-08-17T08:58:48.497Z,7.82
2022-08-17T09:01:30.514Z,6.53
2022-08-17T09:04:28.864Z,7.90
2022-08-17T09:07:13.136Z,8.18
2022-08-17T09:09:59.520Z,7.40
2022-08-17T09:12:39.821Z,8.93
2022-08-17T09:15:18.715Z,6.68
2022-08-17T09:18:28.512Z,6.50
2022-08-17T09:20:58.415Z,8.15
2022-08-17T09:23:35.430Z,6.80
2022-08-17T09:26:18.241Z,9.63
2022-08-17T09:28:54.917Z,8.15
2022-08-17T09:31:35.585Z,9.60
2022-08-17T09:34:33.214Z,7.13
2022-08-17T09:37:21.539Z,7.75
2022-08-17T09:40:07.596Z,7.20
2022-08-17T09:42:48.726Z,8.90
2022-08-17T09:45:32.626Z,7.15
2022-08-17T09:48:09.452Z,6.03
2022-08-17T09:51:03.894Z,9.48
2022-08-17T09:53:40.914Z,7.80
2022-08-17T09:56:31.364Z,6.28
2022-08-17T09:59:38.172Z,8.80
2022-08-17T10:02:45.866Z,7.25
2022-08-17T10:05:22.146Z,6.53
2022-08-17T10:08:00.785Z,6.05
2022-08-17T10:10:52.210Z,9.05
2022-08-17T10:13:39.345Z,8.25
2022-08-17T10:16:20.704Z,7.13
2022-08-17T10:19:08.212Z,13.10
2022-08-17T10:22:01.513Z,6.93
2022-08-17T10:25:22.642Z,6.90
2022-08-17T10:27:57.888Z,6.68
2022-08-17T10:30:31.895Z,7.60
2022-08-17T10:33:07.291Z,7.13
2022-08-17T10:35:51.266Z,8.80
2022-08-17T10:41:19.437Z,7.80
2022-08-17T10:44:37.877Z,9.80
2022-08-17T10:47:09.938Z,5.65
2022-08-17T10:49:47.920Z,12.15
2022-08-17T10:52:54.980Z,7.93
2022-08-17T10:55:25.948Z,8.13
2022-08-17T10:58:24.627Z,8.60
2022-08-17T11:01:04.186Z,7.95
2022-08-17T11:03:35.068Z,8.73
2022-08-17T11:06:21.668Z,6.05
2022-08-17T11:09:31.639Z,7.07
2022-08-17T11:12:22.147Z,6.57
2022-08-17T11:15:24.513Z,7.57
2022-08-17T11:18:21.614Z,8.00
2022-08-17T11:21:20.443Z,7.20
2022-08-17T11:24:20.824Z,6.45
2022-08-17T11:27:12.514Z,6.28
2022-08-17T11:30:01.417Z,7.60
2022-08-17T11:32:48.724Z,8.68
2022-08-17T11:35:41.661Z,11.48
2022-08-17T11:38:28.459Z,6.95
2022-08-17T11:41:24.142Z,9.95
2022-08-17T11:44:18.742Z,7.53
2022-08-17T11:47:24.474Z,8.18
2022-08-17T11:50:38.394Z,8.88
2022-08-17T11:57:02.368Z,11.00
2022-08-17T12:00:05.117Z,8.23
2022-08-17T12:02:48.423Z,8.48
2022-08-17T12:05:37.337Z,7.00
2022-08-17T12:08:20.377Z,9.55
2022-08-17T12:11:02.728Z,7.35
2022-08-17T12:13:39.933Z,8.45
2022-08-17T12:16:11.522Z,6.75
2022-08-17T12:18:42.418Z,6.15
2022-08-17T12:21:43.625Z,9.52
2022-08-17T12:24:40.634Z,8.90
2022-08-17T12:27:14.200Z,6.97
2022-08-17T12:29:47.383Z,6.88
2022-08-17T12:32:22.138Z,8.33
2022-08-17T12:34:54.161Z,7.47
2022-08-17T12:37:28.011Z,8.02
2022-08-17T12:40:22.103Z,7.55
2022-08-17T12:43:01.198Z,6.68
2022-08-17T12:45:35.097Z,9.43
2022-08-17T12:48:09.458Z,7.78
2022-08-17T12:50:42.609Z,6.30
2022-08-17T12:53:15.941Z,6.13
2022-08-17T12:55:49.768Z,7.80
2022-08-17T12:58:25.105Z,5.05
2022-08-17T13:01:04.410Z,7.35
2022-08-17T13:03:42.942Z,6.53
2022-08-17T13:06:17.146Z,8.02
2022-08-17T13:08:50.863Z,8.55
2022-08-17T13:11:28.970Z,7.22
2022-08-17T13:14:12.169Z,7.45
2022-08-17T13:16:42.501Z,10.75
2022-08-17T13:19:20.403Z,6.28
2022-08-17T13:22:15.303Z,7.57
2022-08-17T13:24:57.824Z,8.27
2022-08-17T13:27:32.426Z,11.02
2022-08-17T13:30:07.767Z,6.95
2022-08-17T13:32:45.075Z,8.73
2022-08-17T13:35:49.309Z,12.90
2022-08-17T13:38:44.068Z,9.27
2022-08-17T13:41:33.761Z,10.88
2022-08-17T13:44:37.162Z,8.45
2022-08-17T13:47:09.969Z,9.23
2022-08-17T13:49:49.078Z,15.57
2022-08-17T13:52:39.854Z,7.75
2022-08-17T13:55:24.038Z,7.20
2022-08-17T13:58:04.110Z,10.32
2022-08-17T14:00:40.928Z,7.97
2022-08-17T14:03:11.161Z,7.63
2022-08-17T14:05:42.727Z,8.80
2022-08-17T14:08:17.052Z,6.90
2022-08-17T14:10:47.954Z,8.27
2022-08-17T14:13:18.755Z,6.97
2022-08-17T14:15:55.379Z,9.65
2022-08-17T14:18:55.268Z,7.15
2022-08-17T14:21:17.910Z,8.40
2022-08-17T14:23:54.611Z,8.27
2022-08-17T14:26:25.451Z,10.38
2022-08-17T14:28:56.930Z,8.25
2022-08-17T14:31:35.380Z,8.63
2022-08-17T14:34:10.540Z,7.93
2022-08-17T14:36:48.230Z,15.33
2022-08-17T14:39:20.470Z,6.10
2022-08-17T14:41:50.895Z,10.65
2022-08-17T14:44:21.308Z,10.65
2022-08-17T14:46:54.329Z,7.72
2022-08-17T14:49:26.139Z,15.95
2022-08-17T14:51:56.378Z,7.50
2022-08-17T14:54:32.903Z,8.02
2022-08-17T14:57:23.337Z,7.55
2022-08-17T14:59:57.668Z,11.70
2022-08-17T15:02:31.379Z,9.32
2022-08-17T15:05:03.876Z,9.52
2022-08-17T15:07:34.471Z,6.90
2022-08-17T15:10:04.704Z,6.90
2022-08-17T15:12:35.303Z,7.88
2022-08-17T15:15:08.533Z,9.70
2022-08-17T15:17:44.519Z,12.47
2022-08-17T15:20:19.487Z,8.68
2022-08-17T15:22:55.298Z,8.70
2022-08-17T15:25:28.055Z,7.07
2022-08-17T15:27:58.615Z,7.32
2022-08-17T15:30:30.445Z,7.18
2022-08-17T15:33:04.477Z,7.47
2022-08-17T15:35:37.599Z,9.13
2022-08-17T15:38:12.282Z,10.38
2022-08-17T15:40:47.199Z,9.27
2022-08-17T15:43:27.044Z,7.05
2022-08-17T15:46:03.151Z,9.25
2022-08-17T15:48:44.703Z,10.93
2022-08-17T15:51:18.468Z,6.90
2022-08-17T15:53:52.285Z,7.40
2022-08-17T15:56:23.021Z,13.75
2022-08-17T15:58:55.281Z,8.55
2022-08-17T16:02:29.914Z,7.40
2022-08-17T16:04:30.337Z,6.88
2022-08-17T16:07:02.007Z,11.25
2022-08-17T16:09:32.462Z,5.93
2022-08-17T16:12:13.497Z,6.72
2022-08-17T16:14:43.863Z,8.45
2022-08-17T16:17:29.607Z,11.07
2022-08-17T16:20:09.398Z,8.55
2022-08-17T16:22:52.917Z,6.75
2022-08-17T16:25:51.885Z,7.05
2022-08-17T16:28:20.505Z,9.82
2022-08-17T16:30:51.027Z,10.52
2022-08-17T16:33:21.583Z,7.25
2022-08-17T16:35:54.521Z,9.23
2022-08-17T16:38:24.855Z,7.75
2022-08-17T16:40:55.167Z,9.68
2022-08-17T16:43:25.861Z,6.07
2022-08-17T16:45:56.431Z,9.90
2022-08-17T16:48:27.854Z,7.88
2022-08-17T16:51:03.983Z,8.18
2022-08-17T16:53:35.303Z,7.05
2022-08-17T16:56:07.401Z,9.57
2022-08-17T16:58:41.073Z,8.27
2022-08-17T17:01:12.903Z,7.05
2022-08-17T17:03:47.786Z,7.90
2022-08-17T17:06:32.441Z,11.43
2022-08-17T17:09:06.773Z,8.32
2022-08-17T17:11:44.464Z,8.85
2022-08-17T17:14:21.988Z,6.55
2022-08-17T17:16:58.457Z,7.20
2022-08-17T17:19:35.854Z,9.00
2022-08-17T17:22:17.889Z,8.35
2022-08-17T17:24:59.292Z,8.07
2022-08-17T17:27:42.751Z,11.20
2022-08-17T17:30:20.880Z,6.90
2022-08-17T17:32:57.373Z,7.15
2022-08-17T17:35:36.228Z,8.52
2022-08-17T17:38:18.870Z,8.20
2022-08-17T17:40:53.979Z,9.15
2022-08-17T17:43:41.132Z,10.18
2022-08-17T17:46:27.306Z,9.20
2022-08-17T17:48:59.691Z,12.65
2022-08-17T17:52:06.442Z,11.25
2022-08-17T17:54:52.846Z,12.15
2022-08-17T17:57:33.023Z,8.40
2022-08-17T18:00:11.063Z,9.88
2022-08-17T18:03:03.068Z,9.98
2022-08-17T18:06:02.426Z,9.13
2022-08-17T18:08:49.366Z,9.35
2022-08-17T18:11:51.557Z,9.05
2022-08-17T18:14:36.321Z,8.40
2022-08-17T18:17:06.704Z,10.07
2022-08-17T18:19:39.110Z,9.43
2022-08-17T18:22:14.873Z,11.38
2022-08-17T18:24:49.277Z,7.28
2022-08-17T18:27:34.460Z,7.65
2022-08-17T18:30:26.265Z,9.10
2022-08-17T18:32:56.857Z,11.05
2022-08-17T18:35:36.697Z,9.70
2022-08-17T18:38:25.141Z,10.18
2022-08-17T18:41:20.146Z,8.70
2022-08-17T18:44:04.652Z,11.57
2022-08-17T18:46:37.648Z,8.52
2022-08-17T18:49:10.916Z,11.87
2022-08-17T18:51:44.080Z,11.00
2022-08-17T18:54:24.304Z,9.68
2022-08-17T18:56:57.989Z,10.93
2022-08-17T18:59:43.620Z,8.23
2022-08-17T19:02:44.767Z,8.38
2022-08-17T19:05:32.603Z,10.73
2022-08-17T19:08:25.583Z,10.90
2022-08-17T19:11:01.571Z,11.70
2022-08-17T19:13:38.161Z,11.07
2022-08-17T19:16:18.199Z,7.97
2022-08-17T19:18:53.722Z,11.48
2022-08-17T19:21:29.381Z,10.48
2022-08-17T19:24:08.196Z,8.68
2022-08-17T19:26:53.375Z,8.93
2022-08-17T19:29:36.337Z,12.00
2022-08-17T19:32:10.743Z,15.90
2022-08-17T19:34:44.783Z,17.25
2022-08-17T19:37:33.335Z,9.90
2022-08-17T19:40:41.674Z,9.45
2022-08-17T19:43:28.566Z,13.82
2022-08-17T19:46:08.703Z,9.30
2022-08-17T19:48:55.053Z,8.55
2022-08-17T19:51:42.926Z,11.32
2022-08-17T19:54:22.249Z,10.32
2022-08-17T19:57:01.958Z,11.48
2022-08-17T19:59:49.590Z,11.63
2022-08-17T20:02:36.709Z,9.70
2022-08-17T20:05:18.538Z,9.40
2022-08-17T20:07:57.661Z,10.60
2022-08-17T20:10:42.083Z,9.35
2022-08-17T20:13:18.403Z,8.68
2022-08-17T20:16:03.738Z,12.57
2022-08-17T20:18:41.895Z,10.80
2022-08-17T20:21:24.996Z,11.95
2022-08-17T20:24:02.285Z,9.50
2022-08-17T20:26:55.285Z,9.32
2022-08-17T20:32:52.041Z,8.90
2022-08-17T20:35:28.513Z,9.90
2022-08-17T20:38:03.700Z,11.40
2022-08-17T20:40:41.106Z,9.38
2022-08-17T20:43:52.285Z,10.25
2022-08-17T20:47:00.806Z,12.63
2022-08-17T20:49:44.670Z,10.43
2022-08-17T20:52:18.558Z,11.23
2022-08-17T20:54:53.295Z,13.48
2022-08-17T20:57:50.192Z,11.48
2022-08-17T21:00:46.681Z,11.75
2022-08-17T21:03:51.783Z,13.82
2022-08-17T21:06:26.606Z,12.38
2022-08-17T21:09:01.247Z,10.02
2022-08-17T21:12:03.849Z,12.98
2022-08-17T21:14:57.564Z,11.73
2022-08-17T21:17:50.281Z,9.13
2022-08-17T21:20:37.002Z,14.45
2022-08-17T21:23:23.194Z,11.27
2022-08-17T21:26:21.283Z,9.52
2022-08-17T21:29:30.015Z,11.52
2022-08-17T21:32:24.170Z,12.63
2022-08-17T21:35:31.933Z,14.88
2022-08-17T21:38:19.535Z,11.25
2022-08-17T21:40:53.467Z,14.23
2022-08-17T21:43:29.477Z,11.68
2022-08-17T21:46:05.170Z,11.32
2022-08-17T21:48:48.287Z,10.82
2022-08-17T21:51:25.706Z,11.00
2022-08-17T21:54:00.118Z,10.45
2022-08-17T21:56:36.425Z,12.32
2022-08-17T21:59:10.740Z,11.35
2022-08-17T22:04:28.155Z,11.43
2022-08-17T22:07:03.984Z,13.75
2022-08-17T22:09:36.761Z,12.98
2022-08-17T22:12:13.053Z,9.82
2022-08-17T22:14:51.450Z,9.68
2022-08-17T22:17:26.422Z,11.70
2022-08-17T22:20:01.914Z,10.55
2022-08-17T22:23:16.815Z,11.88
2022-08-17T22:26:04.931Z,10.88
2022-08-17T22:28:42.582Z,10.48
2022-08-17T22:31:15.627Z,9.90
2022-08-17T22:33:49.867Z,12.98
2022-08-17T22:39:04.199Z,9.93
2022-08-17T22:41:41.337Z,10.75
2022-08-17T22:44:23.381Z,12.25
2022-08-17T22:47:06.864Z,13.48
2022-08-17T22:49:53.732Z,13.40
2022-08-17T22:52:36.036Z,10.38
2022-08-17T22:55:30.445Z,12.38
2022-08-17T22:58:13.599Z,11.40
2022-08-17T23:00:47.708Z,16.20
2022-08-17T23:03:22.342Z,14.93
2022-08-17T23:06:08.207Z,14.23
2022-08-17T23:08:48.082Z,10.65
2022-08-17T23:11:39.446Z,11.02
2022-08-17T23:14:15.895Z,12.63
2022-08-17T23:16:46.458Z,13.27
2022-08-17T23:19:20.037Z,19.15
2022-08-17T23:21:50.592Z,11.75
2022-08-17T23:24:28.015Z,11.95
2022-08-17T23:27:01.127Z,11.90
2022-08-17T23:29:32.097Z,13.38
2022-08-17T23:32:04.879Z,12.70
2022-08-17T23:34:35.277Z,13.60
2022-08-17T23:37:05.702Z,12.35
2022-08-17T23:39:36.345Z,12.35
2022-08-17T23:42:15.283Z,10.90
2022-08-17T23:44:45.978Z,14.00
2022-08-17T23:47:16.187Z,11.95
2022-08-17T23:49:46.412Z,12.35
2022-08-17T23:52:18.574Z,10.68
2022-08-17T23:54:50.453Z,11.48
2022-08-17T23:57:33.119Z,12.63
